createdAt,value
2023-02-12T00:01:50.561Z,6.37
2023-02-12T00:04:19.467Z,8.37
2023-02-12T00:06:48.025Z,6.57
2023-02-12T00:09:16.695Z,7.57
2023-02-12T00:11:45.052Z,9.63
2023-02-12T00:14:13.704Z,8.40
2023-02-12T00:16:43.507Z,8.00
2023-02-12T00:19:12.258Z,10.20
2023-02-12T00:21:41.051Z,8.07
2023-02-12T00:24:09.824Z,8.30
2023-02-12T00:26:38.316Z,7.93
2023-02-12T00:29:07.103Z,7.83
2023-02-12T00:31:35.976Z,7.17
2023-02-12T00:34:06.164Z,9.87
2023-02-12T00:36:35.289Z,7.70
2023-02-12T00:39:04.163Z,8.10
2023-02-12T00:41:32.676Z,8.70
2023-02-12T00:44:01.790Z,8.67
2023-02-12T00:46:30.326Z,7.70
2023-02-12T00:48:59.138Z,6.97
2023-02-12T00:51:29.042Z,8.10
2023-02-12T00:53:58.146Z,6.77
2023-02-12T00:56:26.615Z,8.07
2023-02-12T00:58:55.272Z,9.23
2023-02-12T01:01:23.742Z,6.80
2023-02-12T01:03:52.535Z,7.20
2023-02-12T01:06:21.006Z,7.67
2023-02-12T01:08:53.247Z,7.10
2023-02-12T01:11:22.338Z,7.33
2023-02-12T01:13:51.012Z,7.27
2023-02-12T01:16:22.237Z,7.70
2023-02-12T01:18:55.855Z,7.53
2023-02-12T01:21:26.785Z,6.60
2023-02-12T01:23:58.969Z,7.10
2023-02-12T01:26:28.196Z,7.67
2023-02-12T01:28:59.662Z,6.17
2023-02-12T01:31:29.836Z,7.53
2023-02-12T01:34:00.573Z,6.17
2023-02-12T01:36:30.918Z,7.77
2023-02-12T01:39:02.896Z,7.37
2023-02-12T01:41:33.549Z,7.97
2023-02-12T01:44:11.406Z,7.23
2023-02-12T01:46:40.363Z,7.43
2023-02-12T01:49:12.973Z,7.40
2023-02-12T01:51:42.679Z,7.73
2023-02-12T01:54:16.064Z,7.70
2023-02-12T01:56:45.340Z,7.63
2023-02-12T01:59:14.797Z,7.03
2023-02-12T02:01:43.433Z,5.97
2023-02-12T02:04:16.247Z,6.60
2023-02-12T02:06:51.508Z,7.93
2023-02-12T02:09:22.037Z,6.27
2023-02-12T02:12:07.846Z,7.80
2023-02-12T02:14:37.066Z,7.63
2023-02-12T02:17:25.161Z,7.40
2023-02-12T02:20:30.786Z,6.37
2023-02-12T02:23:13.600Z,7.17
2023-02-12T02:26:08.715Z,7.00
2023-02-12T02:28:58.341Z,5.37
2023-02-12T02:31:34.628Z,4.83
2023-02-12T02:34:12.230Z,6.00
2023-02-12T02:36:59.587Z,6.67
2023-02-12T02:39:38.704Z,4.83
2023-02-12T02:42:12.182Z,4.80
2023-02-12T02:44:50.046Z,4.90
2023-02-12T02:47:24.713Z,5.57
2023-02-12T02:49:57.329Z,5.23
2023-02-12T02:52:40.066Z,5.00
2023-02-12T02:55:10.764Z,4.50
2023-02-12T02:57:46.984Z,6.13
2023-02-12T03:00:18.392Z,6.73
2023-02-12T03:02:53.531Z,5.90
2023-02-12T03:05:26.433Z,6.50
2023-02-12T03:07:59.833Z,5.70
2023-02-12T03:10:32.104Z,5.97
2023-02-12T03:13:08.328Z,6.70
2023-02-12T03:15:41.308Z,5.70
2023-02-12T03:18:15.237Z,6.17
2023-02-12T03:20:46.784Z,6.57
2023-02-12T03:23:20.670Z,5.97
2023-02-12T03:25:55.013Z,5.70
2023-02-12T03:28:30.102Z,5.37
2023-02-12T03:31:09.161Z,5.20
2023-02-12T03:33:49.957Z,4.70
2023-02-12T03:36:28.403Z,5.20
2023-02-12T03:39:07.130Z,4.60
2023-02-12T03:41:42.189Z,4.97
2023-02-12T03:44:21.621Z,5.47
2023-02-12T03:47:01.124Z,4.97
2023-02-12T03:49:36.565Z,4.93
2023-02-12T03:52:05.822Z,5.83
2023-02-12T03:54:34.849Z,4.90
2023-02-12T03:57:07.476Z,5.80
2023-02-12T03:59:37.686Z,5.57
2023-02-12T04:02:06.318Z,4.93
2023-02-12T04:04:37.078Z,6.00
2023-02-12T04:07:05.657Z,5.93
2023-02-12T04:09:34.422Z,5.63
2023-02-12T04:12:28.497Z,5.93
2023-02-12T04:15:12.985Z,5.40
2023-02-12T04:17:49.958Z,6.37
2023-02-12T04:20:29.513Z,6.20
2023-02-12T04:23:10.899Z,6.27
2023-02-12T04:25:50.681Z,6.10
2023-02-12T04:28:28.711Z,5.70
2023-02-12T04:31:01.849Z,4.97
2023-02-12T04:33:36.817Z,5.93
2023-02-12T04:36:11.778Z,5.27
2023-02-12T04:38:44.432Z,5.67
2023-02-12T04:41:13.382Z,5.37
2023-02-12T04:43:41.774Z,6.23
2023-02-12T04:46:10.800Z,6.97
2023-02-12T04:48:51.722Z,6.93
2023-02-12T04:51:21.985Z,6.20
2023-02-12T04:53:50.515Z,6.17
2023-02-12T04:56:19.220Z,5.90
2023-02-12T04:58:47.598Z,6.63
2023-02-12T05:01:16.804Z,5.73
2023-02-12T05:03:45.201Z,5.57
2023-02-12T05:06:14.027Z,6.23
2023-02-12T05:08:43.789Z,6.03
2023-02-12T05:11:13.219Z,6.97
2023-02-12T05:13:41.824Z,5.80
2023-02-12T05:16:10.834Z,6.27
2023-02-12T05:18:39.370Z,5.63
2023-02-12T05:21:08.074Z,5.23
2023-02-12T05:23:38.716Z,5.87
2023-02-12T05:26:11.696Z,6.57
2023-02-12T05:28:40.418Z,6.30
2023-02-12T05:31:11.199Z,5.93
2023-02-12T05:33:39.821Z,5.83
2023-02-12T05:36:11.159Z,5.57
2023-02-12T05:38:40.023Z,5.60
2023-02-12T05:41:11.936Z,5.53
2023-02-12T05:43:40.523Z,5.70
2023-02-12T05:46:09.740Z,8.17
2023-02-12T05:48:39.051Z,9.37
2023-02-12T05:51:10.281Z,9.57
2023-02-12T05:53:40.094Z,8.93
2023-02-12T05:56:13.405Z,9.33
2023-02-12T05:58:43.293Z,9.83
2023-02-12T06:01:15.118Z,10.13
2023-02-12T06:03:43.749Z,9.93
2023-02-12T06:06:12.703Z,8.73
2023-02-12T06:08:41.580Z,9.03
2023-02-12T06:11:14.989Z,9.63
2023-02-12T06:13:43.550Z,9.80
2023-02-12T06:16:19.252Z,9.00
2023-02-12T06:18:47.730Z,8.67
2023-02-12T06:21:16.911Z,8.67
2023-02-12T06:23:45.621Z,10.40
2023-02-12T06:26:15.735Z,9.30
2023-02-12T06:28:44.165Z,9.50
2023-02-12T06:31:24.610Z,7.67
2023-02-12T06:33:54.020Z,9.70
2023-02-12T06:36:22.980Z,10.57
2023-02-12T06:38:51.903Z,10.60
2023-02-12T06:41:22.886Z,11.57
2023-02-12T06:43:52.176Z,11.97
2023-02-12T06:46:21.670Z,11.63
2023-02-12T06:48:50.162Z,10.00
2023-02-12T06:51:21.821Z,10.70
2023-02-12T06:53:51.009Z,9.73
2023-02-12T06:56:22.261Z,10.40
2023-02-12T06:58:55.107Z,9.57
2023-02-12T07:01:26.082Z,9.10
2023-02-12T07:03:56.287Z,9.40
2023-02-12T07:06:26.085Z,9.33
2023-02-12T07:08:54.998Z,8.67
2023-02-12T07:11:26.257Z,11.23
2023-02-12T07:13:55.272Z,10.77
2023-02-12T07:16:24.330Z,10.57
2023-02-12T07:18:52.891Z,10.37
2023-02-12T07:21:21.841Z,10.27
2023-02-12T07:23:51.616Z,9.27
2023-02-12T07:26:22.201Z,9.27
2023-02-12T07:28:52.647Z,9.67
2023-02-12T07:31:23.430Z,9.40
2023-02-12T07:33:55.984Z,9.30
2023-02-12T07:36:26.162Z,8.77
2023-02-12T07:38:55.591Z,8.70
2023-02-12T07:41:26.051Z,8.23
2023-02-12T07:43:57.924Z,7.67
2023-02-12T07:46:30.602Z,9.47
2023-02-12T07:49:00.294Z,8.10
2023-02-12T07:51:29.700Z,7.97
2023-02-12T07:53:58.195Z,8.17
2023-02-12T07:56:30.873Z,8.80
2023-02-12T07:59:02.605Z,8.43
2023-02-12T08:01:33.727Z,8.20
2023-02-12T08:04:06.033Z,9.13
2023-02-12T08:06:37.562Z,8.10
2023-02-12T08:09:09.845Z,14.53
2023-02-12T08:11:39.924Z,8.27
2023-02-12T08:14:12.167Z,9.50
2023-02-12T08:16:42.265Z,8.07
2023-02-12T08:19:19.365Z,8.57
2023-02-12T08:21:51.603Z,8.23
2023-02-12T08:24:21.987Z,8.80
2023-02-12T08:26:51.215Z,8.87
2023-02-12T08:29:24.190Z,9.33
2023-02-12T08:31:57.795Z,9.27
2023-02-12T08:34:27.938Z,7.63
2023-02-12T08:36:58.025Z,8.53
2023-02-12T08:39:28.369Z,9.57
2023-02-12T08:41:58.300Z,9.53
2023-02-12T08:44:28.104Z,10.67
2023-02-12T08:46:56.849Z,8.93
2023-02-12T08:49:27.331Z,10.23
2023-02-12T08:51:58.820Z,10.87
2023-02-12T08:54:29.943Z,9.23
2023-02-12T08:57:02.134Z,8.63
2023-02-12T08:59:31.996Z,9.73
2023-02-12T09:02:01.186Z,10.83
2023-02-12T09:04:30.302Z,9.37
2023-02-12T09:06:59.233Z,10.67
2023-02-12T09:09:27.728Z,9.33
2023-02-12T09:11:56.501Z,10.73
2023-02-12T09:14:25.357Z,9.93
2023-02-12T09:16:57.375Z,9.87
2023-02-12T09:19:26.411Z,9.13
2023-02-12T09:21:57.056Z,9.93
2023-02-12T09:24:27.614Z,9.53
2023-02-12T09:26:56.954Z,10.70
2023-02-12T09:29:25.425Z,12.07
2023-02-12T09:31:55.970Z,12.83
2023-02-12T09:34:24.649Z,10.20
2023-02-12T09:36:53.445Z,10.97
2023-02-12T09:39:21.888Z,10.70
2023-02-12T09:42:22.427Z,12.23
2023-02-12T09:45:01.198Z,11.77
2023-02-12T09:47:37.430Z,11.73
2023-02-12T09:50:34.219Z,11.97
2023-02-12T09:53:03.471Z,11.97
2023-02-12T09:55:34.242Z,14.77
2023-02-12T09:58:08.229Z,14.87
2023-02-12T10:00:36.761Z,13.07
2023-02-12T10:03:14.900Z,12.87
2023-02-12T10:05:48.793Z,11.43
2023-02-12T10:08:36.516Z,12.73
2023-02-12T10:11:29.941Z,12.37
2023-02-12T10:14:11.018Z,12.97
2023-02-12T10:16:52.131Z,11.00
2023-02-12T10:19:38.973Z,13.97
2023-02-12T10:22:18.408Z,12.70
2023-02-12T10:24:59.162Z,12.80
2023-02-12T10:27:39.266Z,12.37
2023-02-12T10:30:18.423Z,15.00
2023-02-12T10:32:48.767Z,17.80
2023-02-12T10:35:20.342Z,16.57
2023-02-12T10:37:53.783Z,15.20
2023-02-12T10:40:28.166Z,14.30
2023-02-12T10:42:57.580Z,13.60
2023-02-12T10:45:30.841Z,15.27
2023-02-12T10:48:10.233Z,17.97
2023-02-12T10:51:12.473Z,18.13
2023-02-12T10:53:42.716Z,17.13
2023-02-12T10:56:18.346Z,18.60
2023-02-12T10:58:55.804Z,17.97
2023-02-12T11:01:28.520Z,16.20
2023-02-12T11:03:59.424Z,17.50
2023-02-12T11:06:33.127Z,19.17
2023-02-12T11:09:01.969Z,18.27
2023-02-12T11:11:37.801Z,17.40
2023-02-12T11:14:08.698Z,18.97
2023-02-12T11:16:42.817Z,16.27
2023-02-12T11:19:25.738Z,15.53
2023-02-12T11:22:08.202Z,13.07
2023-02-12T11:24:38.158Z,10.70
2023-02-12T11:27:20.876Z,10.47
2023-02-12T11:30:12.328Z,8.27
2023-02-12T11:32:41.172Z,8.03
2023-02-12T11:35:15.385Z,8.60
2023-02-12T11:37:47.539Z,9.83
2023-02-12T11:40:21.152Z,10.00
2023-02-12T11:42:54.316Z,9.20
2023-02-12T11:45:28.275Z,9.40
2023-02-12T11:48:00.246Z,9.67
2023-02-12T11:50:30.999Z,7.43
2023-02-12T11:53:09.408Z,7.60
2023-02-12T11:55:40.627Z,13.67
2023-02-12T11:58:18.261Z,8.93
2023-02-12T12:00:52.144Z,8.97
2023-02-12T12:03:26.264Z,9.00
2023-02-12T12:06:00.813Z,8.20
2023-02-12T12:08:37.049Z,8.37
2023-02-12T12:11:12.834Z,7.77
2023-02-12T12:13:48.640Z,10.47
2023-02-12T12:16:43.370Z,9.40
2023-02-12T12:19:34.758Z,9.97
2023-02-12T12:22:10.712Z,8.73
2023-02-12T12:24:46.302Z,10.50
2023-02-12T12:27:40.472Z,8.13
2023-02-12T12:30:19.181Z,36.30
2023-02-12T12:32:50.063Z,10.13
2023-02-12T12:35:25.464Z,8.60
2023-02-12T12:37:59.388Z,9.17
2023-02-12T12:40:43.326Z,10.10
2023-02-12T12:43:15.093Z,8.37
2023-02-12T12:46:16.341Z,8.40
2023-02-12T12:49:08.313Z,9.13
2023-02-12T12:52:01.713Z,8.37
2023-02-12T12:54:45.704Z,8.73
2023-02-12T12:57:27.590Z,8.73
2023-02-12T13:00:21.317Z,7.43
2023-02-12T13:03:16.576Z,11.03
2023-02-12T13:06:21.281Z,12.17
2023-02-12T13:09:08.243Z,9.83
2023-02-12T13:11:46.670Z,9.67
2023-02-12T13:14:29.649Z,11.17
2023-02-12T13:17:08.888Z,9.87
2023-02-12T13:19:47.185Z,11.63
2023-02-12T13:22:24.702Z,9.87
2023-02-12T13:25:02.504Z,9.90
2023-02-12T13:27:35.487Z,11.00
2023-02-12T13:30:18.520Z,11.97
2023-02-12T13:32:51.541Z,11.33
2023-02-12T13:35:22.716Z,8.70
2023-02-12T13:37:54.976Z,9.20
2023-02-12T13:40:25.803Z,9.03
2023-02-12T13:43:00.843Z,9.57
2023-02-12T13:45:41.956Z,9.40
2023-02-12T13:48:42.763Z,11.40
2023-02-12T13:51:22.902Z,12.27
2023-02-12T13:54:05.689Z,10.70
2023-02-12T13:56:42.252Z,13.00
2023-02-12T13:59:48.918Z,12.10
2023-02-12T14:02:47.557Z,10.33
2023-02-12T14:05:22.368Z,10.60
2023-02-12T14:07:53.145Z,12.80
2023-02-12T14:10:27.819Z,12.63
2023-02-12T14:13:00.400Z,11.77
2023-02-12T14:15:36.367Z,13.00
2023-02-12T14:18:22.089Z,12.53
2023-02-12T14:21:37.595Z,13.10
2023-02-12T14:24:52.048Z,10.50
2023-02-12T14:27:43.744Z,13.50
2023-02-12T14:30:33.493Z,12.37
2023-02-12T14:33:21.407Z,11.73
2023-02-12T14:36:11.270Z,10.77
2023-02-12T14:38:58.299Z,12.87
2023-02-12T14:41:37.562Z,12.67
2023-02-12T14:44:42.431Z,13.73
2023-02-12T14:47:37.750Z,13.43
2023-02-12T14:50:16.741Z,12.47
2023-02-12T14:52:54.151Z,13.40
2023-02-12T14:55:27.281Z,10.53
2023-02-12T14:58:01.998Z,11.43
2023-02-12T15:00:35.348Z,10.90
2023-02-12T15:03:17.216Z,11.00
2023-02-12T15:05:53.850Z,11.90
2023-02-12T15:08:30.668Z,11.77
2023-02-12T15:11:07.904Z,11.57
2023-02-12T15:13:48.605Z,9.57
2023-02-12T15:16:25.980Z,9.77
2023-02-12T15:19:00.968Z,10.07
2023-02-12T15:21:33.854Z,8.10
2023-02-12T15:24:05.500Z,8.77
2023-02-12T15:26:38.088Z,7.50
2023-02-12T15:29:09.022Z,8.27
2023-02-12T15:31:37.793Z,6.13
2023-02-12T15:34:07.656Z,4.73
2023-02-12T15:36:38.117Z,5.73
2023-02-12T15:39:10.329Z,5.57
2023-02-12T15:41:41.944Z,4.83
2023-02-12T15:44:24.263Z,6.30
2023-02-12T15:47:01.807Z,5.53
2023-02-12T15:49:34.836Z,6.17
2023-02-12T15:52:08.759Z,6.23
2023-02-12T15:54:37.777Z,6.07
2023-02-12T15:57:12.379Z,6.43
2023-02-12T15:59:41.803Z,6.43
2023-02-12T16:02:21.526Z,6.73
2023-02-12T16:04:50.552Z,6.50
2023-02-12T16:07:21.361Z,6.90
2023-02-12T16:09:51.730Z,6.20
2023-02-12T16:12:24.779Z,6.67
2023-02-12T16:14:55.540Z,6.90
2023-02-12T16:17:29.580Z,7.30
2023-02-12T16:20:00.760Z,6.20
2023-02-12T16:22:34.157Z,7.20
2023-02-12T16:25:03.642Z,7.47
2023-02-12T16:27:34.137Z,7.43
2023-02-12T16:30:05.438Z,8.30
2023-02-12T16:32:39.551Z,8.30
2023-02-12T16:35:26.708Z,9.23
2023-02-12T16:38:01.333Z,9.40
2023-02-12T16:40:36.663Z,10.03
2023-02-12T16:43:26.566Z,11.30
2023-02-12T16:46:06.657Z,10.67
2023-02-12T16:48:40.509Z,10.40
2023-02-12T16:51:22.869Z,10.97
2023-02-12T16:53:53.978Z,10.70
2023-02-12T16:56:23.853Z,10.17
2023-02-12T16:58:55.574Z,11.27
2023-02-12T17:01:26.853Z,10.73
2023-02-12T17:03:56.510Z,11.97
2023-02-12T17:06:27.561Z,12.57
2023-02-12T17:08:57.544Z,10.57
2023-02-12T17:11:28.493Z,11.97
2023-02-12T17:13:57.528Z,11.50
2023-02-12T17:16:31.229Z,12.73
2023-02-12T17:19:00.805Z,10.80
2023-02-12T17:21:31.724Z,13.13
2023-02-12T17:24:01.595Z,12.80
2023-02-12T17:26:30.280Z,12.40
2023-02-12T17:29:05.264Z,15.80
2023-02-12T17:31:34.640Z,14.67
2023-02-12T17:34:03.439Z,13.03
2023-02-12T17:36:32.166Z,13.77
2023-02-12T17:39:04.734Z,14.10
2023-02-12T17:41:33.766Z,14.53
2023-02-12T17:44:02.346Z,13.30
2023-02-12T17:46:31.802Z,12.60
2023-02-12T17:49:00.351Z,13.73
2023-02-12T17:51:29.229Z,13.27
2023-02-12T17:53:57.713Z,11.73
2023-02-12T17:56:27.891Z,11.07
2023-02-12T17:58:56.444Z,12.23
2023-02-12T18:01:25.509Z,11.43
2023-02-12T18:03:55.850Z,12.73
2023-02-12T18:06:26.283Z,10.73
2023-02-12T18:08:55.361Z,12.33
2023-02-12T18:11:24.802Z,11.87
2023-02-12T18:13:55.743Z,13.40
2023-02-12T18:16:26.137Z,11.20
2023-02-12T18:18:54.949Z,11.37
2023-02-12T18:21:23.868Z,11.33
2023-02-12T18:23:53.978Z,10.87
2023-02-12T18:26:23.638Z,10.17
2023-02-12T18:28:53.842Z,12.67
2023-02-12T18:31:24.121Z,11.83
2023-02-12T18:33:54.165Z,12.80
2023-02-12T18:36:24.081Z,13.73
2023-02-12T18:38:54.014Z,12.50
2023-02-12T18:41:25.181Z,11.97
2023-02-12T18:43:54.780Z,11.13
2023-02-12T18:46:26.835Z,10.90
2023-02-12T18:48:56.042Z,11.77
2023-02-12T18:51:26.346Z,10.50
2023-02-12T18:53:56.526Z,9.97
2023-02-12T18:56:25.564Z,10.10
2023-02-12T18:58:57.624Z,9.93
2023-02-12T19:01:29.223Z,11.27
2023-02-12T19:04:00.199Z,10.23
2023-02-12T19:06:29.780Z,10.87
2023-02-12T19:09:00.040Z,11.67
2023-02-12T19:11:29.511Z,10.67
2023-02-12T19:13:58.888Z,10.63
2023-02-12T19:16:29.342Z,9.37
2023-02-12T19:19:00.820Z,11.23
2023-02-12T19:21:31.944Z,13.00
2023-02-12T19:24:02.600Z,10.27
2023-02-12T19:26:35.284Z,10.20
2023-02-12T19:29:05.956Z,11.97
2023-02-12T19:31:38.423Z,10.20
2023-02-12T19:34:13.462Z,12.60
2023-02-12T19:36:50.638Z,10.80
2023-02-12T19:39:21.969Z,12.50
2023-02-12T19:41:51.997Z,11.37
2023-02-12T19:44:26.448Z,10.70
2023-02-12T19:47:00.631Z,11.83
2023-02-12T19:49:32.806Z,11.53
2023-02-12T19:52:05.527Z,12.27
2023-02-12T19:54:50.202Z,12.63
2023-02-12T19:57:19.935Z,12.63
2023-02-12T19:59:51.149Z,11.73
2023-02-12T20:02:24.051Z,12.40
2023-02-12T20:04:55.566Z,11.73
2023-02-12T20:07:25.276Z,11.67
2023-02-12T20:09:57.709Z,11.90
2023-02-12T20:12:31.309Z,12.23
2023-02-12T20:15:07.528Z,12.13
2023-02-12T20:17:56.662Z,13.23
2023-02-12T20:20:30.849Z,14.93
2023-02-12T20:23:07.984Z,13.27
2023-02-12T20:25:56.816Z,13.77
2023-02-12T20:28:29.897Z,12.73
2023-02-12T20:31:02.443Z,11.57
2023-02-12T20:33:36.207Z,11.33
2023-02-12T20:36:05.725Z,10.73
2023-02-12T20:38:35.473Z,12.50
2023-02-12T20:41:05.581Z,11.17
2023-02-12T20:43:35.671Z,11.87
2023-02-12T20:46:21.305Z,11.40
2023-02-12T20:48:59.475Z,10.50
2023-02-12T20:51:32.064Z,11.70
2023-02-12T20:54:04.728Z,12.07
2023-02-12T20:56:43.970Z,11.97
2023-02-12T20:59:16.173Z,12.33
2023-02-12T21:01:47.826Z,13.00
2023-02-12T21:04:20.528Z,12.70
2023-02-12T21:06:49.925Z,12.47
2023-02-12T21:09:19.962Z,11.50
2023-02-12T21:12:03.010Z,11.77
2023-02-12T21:14:34.652Z,14.10
2023-02-12T21:17:03.279Z,11.97
2023-02-12T21:19:38.707Z,12.27
2023-02-12T21:22:07.630Z,12.77
2023-02-12T21:24:36.533Z,12.80
2023-02-12T21:27:06.590Z,12.07
2023-02-12T21:29:35.396Z,12.87
2023-02-12T21:32:03.989Z,13.33
2023-02-12T21:34:32.967Z,12.73
2023-02-12T21:37:02.888Z,11.80
2023-02-12T21:39:31.761Z,12.77
2023-02-12T21:42:03.436Z,13.10
2023-02-12T21:44:35.289Z,14.03
2023-02-12T21:47:03.892Z,12.13
2023-02-12T21:49:32.674Z,13.30
2023-02-12T21:52:05.956Z,12.73
2023-02-12T21:54:34.800Z,14.60
2023-02-12T21:57:03.370Z,13.67
2023-02-12T21:59:32.664Z,12.53
2023-02-12T22:02:01.806Z,11.87
2023-02-12T22:04:31.063Z,11.80
2023-02-12T22:07:03.068Z,10.70
2023-02-12T22:09:33.630Z,12.53
2023-02-12T22:12:02.151Z,11.83
2023-02-12T22:14:31.106Z,11.37
2023-02-12T22:17:00.005Z,11.77
2023-02-12T22:19:28.931Z,12.07
2023-02-12T22:21:57.378Z,12.30
2023-02-12T22:24:26.029Z,12.23
2023-02-12T22:26:56.938Z,11.37
2023-02-12T22:29:25.666Z,11.53
2023-02-12T22:31:54.208Z,13.10
2023-02-12T22:34:23.124Z,11.30
2023-02-12T22:36:51.559Z,12.47
2023-02-12T22:39:21.382Z,11.93
2023-02-12T22:41:50.124Z,10.83
2023-02-12T22:44:21.395Z,10.73
2023-02-12T22:46:50.395Z,12.63
2023-02-12T22:49:19.563Z,12.53
2023-02-12T22:51:48.150Z,10.93
2023-02-12T22:54:18.769Z,12.03
2023-02-12T22:56:47.584Z,10.77
2023-02-12T22:59:16.278Z,11.10
2023-02-12T23:01:46.121Z,10.50
2023-02-12T23:04:16.707Z,10.37
2023-02-12T23:06:45.972Z,10.60
2023-02-12T23:09:16.837Z,11.50
2023-02-12T23:11:45.572Z,10.87
2023-02-12T23:14:14.266Z,9.33
2023-02-12T23:16:42.786Z,9.57
2023-02-12T23:19:13.454Z,9.83
2023-02-12T23:21:42.504Z,8.77
2023-02-12T23:24:14.156Z,9.67
2023-02-12T23:26:42.639Z,10.27
2023-02-12T23:29:11.489Z,10.53
2023-02-12T23:31:40.109Z,9.30
2023-02-12T23:34:09.291Z,10.43
2023-02-12T23:36:39.169Z,10.23
2023-02-12T23:39:09.551Z,8.67
2023-02-12T23:41:38.021Z,9.13
2023-02-12T23:44:06.741Z,8.30
2023-02-12T23:46:35.131Z,8.13
2023-02-12T23:49:03.954Z,8.50
2023-02-12T23:51:32.671Z,8.10
2023-02-12T23:54:02.853Z,7.20
2023-02-12T23:56:31.324Z,7.60
2023-02-12T23:58:59.991Z,7.40
